sensor_id;sensor_type;location;lat;lon;timestamp;P1;durP1;ratioP1;P2;durP2;ratioP2
10582;SDS011;33679;51.218;6.786;2023-02-11T00:01:47;23.70;;;14.03;;
10582;SDS011;33679;51.218;6.786;2023-02-11T00:04:26;21.70;;;13.07;;
10582;SDS011;33679;51.218;6.786;2023-02-11T00:07:01;20.83;;;13.60;;
10582;SDS011;33679;51.218;6.786;2023-02-11T00:09:36;35.50;;;19.50;;
10582;SDS011;33679;51.218;6.786;2023-02-11T00:12:08;26.10;;;13.40;;
10582;SDS011;33679;51.218;6.786;2023-02-11T00:14:41;23.33;;;13.13;;
10582;SDS011;33679;51.218;6.786;2023-02-11T00:17:17;23.40;;;14.17;;
10582;SDS011;33679;51.218;6.786;2023-02-11T00:19:51;25.83;;;13.10;;
10582;SDS011;33679;51.218;6.786;2023-02-11T00:22:51;20.60;;;12.37;;
10582;SDS011;33679;51.218;6.786;2023-02-11T00:25:23;26.77;;;12.67;;
10582;SDS011;33679;51.218;6.786;2023-02-11T00:27:59;21.13;;;11.47;;
10582;SDS011;33679;51.218;6.786;2023-02-11T00:30:32;19.27;;;12.03;;
10582;SDS011;33679;51.218;6.786;2023-02-11T00:33:05;19.00;;;11.30;;
10582;SDS011;33679;51.218;6.786;2023-02-11T00:35:40;23.37;;;12.60;;
10582;SDS011;33679;51.218;6.786;2023-02-11T00:38:15;23.60;;;11.57;;
10582;SDS011;33679;51.218;6.786;2023-02-11T00:40:47;20.60;;;11.40;;
10582;SDS011;33679;51.218;6.786;2023-02-11T00:43:20;22.33;;;11.67;;
10582;SDS011;33679;51.218;6.786;2023-02-11T00:45:55;21.77;;;11.40;;
10582;SDS011;33679;51.218;6.786;2023-02-11T00:48:29;25.20;;;13.47;;
10582;SDS011;33679;51.218;6.786;2023-02-11T00:51:06;23.00;;;12.83;;
10582;SDS011;33679;51.218;6.786;2023-02-11T00:54:04;23.87;;;12.40;;
10582;SDS011;33679;51.218;6.786;2023-02-11T00:57:12;27.93;;;14.90;;
10582;SDS011;33679;51.218;6.786;2023-02-11T00:59:46;22.80;;;13.13;;
10582;SDS011;33679;51.218;6.786;2023-02-11T01:02:20;25.90;;;12.57;;
10582;SDS011;33679;51.218;6.786;2023-02-11T01:05:02;23.40;;;12.70;;
10582;SDS011;33679;51.218;6.786;2023-02-11T01:08:21;27.70;;;12.73;;
10582;SDS011;33679;51.218;6.786;2023-02-11T01:11:03;23.83;;;13.00;;
10582;SDS011;33679;51.218;6.786;2023-02-11T01:13:46;26.13;;;11.50;;
10582;SDS011;33679;51.218;6.786;2023-02-11T01:16:28;21.33;;;12.77;;
10582;SDS011;33679;51.218;6.786;2023-02-11T01:19:01;28.57;;;13.27;;
10582;SDS011;33679;51.218;6.786;2023-02-11T01:21:41;24.00;;;12.87;;
10582;SDS011;33679;51.218;6.786;2023-02-11T01:24:14;23.60;;;13.20;;
10582;SDS011;33679;51.218;6.786;2023-02-11T01:26:48;25.50;;;13.20;;
10582;SDS011;33679;51.218;6.786;2023-02-11T01:29:21;29.50;;;13.97;;
10582;SDS011;33679;51.218;6.786;2023-02-11T01:31:53;21.40;;;12.67;;
10582;SDS011;33679;51.218;6.786;2023-02-11T01:34:29;24.97;;;12.20;;
10582;SDS011;33679;51.218;6.786;2023-02-11T01:37:03;20.90;;;12.03;;
10582;SDS011;33679;51.218;6.786;2023-02-11T01:39:42;23.30;;;13.77;;
10582;SDS011;33679;51.218;6.786;2023-02-11T01:42:21;26.33;;;13.63;;
10582;SDS011;33679;51.218;6.786;2023-02-11T01:44:55;22.20;;;12.10;;
10582;SDS011;33679;51.218;6.786;2023-02-11T01:47:30;23.90;;;13.27;;
10582;SDS011;33679;51.218;6.786;2023-02-11T01:50:27;22.10;;;12.80;;
10582;SDS011;33679;51.218;6.786;2023-02-11T01:53:36;23.00;;;13.13;;
10582;SDS011;33679;51.218;6.786;2023-02-11T01:56:31;26.00;;;13.87;;
10582;SDS011;33679;51.218;6.786;2023-02-11T01:59:29;26.00;;;14.73;;
10582;SDS011;33679;51.218;6.786;2023-02-11T02:02:14;27.90;;;14.07;;
10582;SDS011;33679;51.218;6.786;2023-02-11T02:04:52;17.80;;;11.27;;
10582;SDS011;33679;51.218;6.786;2023-02-11T02:07:43;26.20;;;12.47;;
10582;SDS011;33679;51.218;6.786;2023-02-11T02:10:32;20.73;;;12.87;;
10582;SDS011;33679;51.218;6.786;2023-02-11T02:13:13;24.93;;;12.57;;
10582;SDS011;33679;51.218;6.786;2023-02-11T02:15:48;27.30;;;13.47;;
10582;SDS011;33679;51.218;6.786;2023-02-11T02:18:30;21.57;;;13.23;;
10582;SDS011;33679;51.218;6.786;2023-02-11T02:31:37;23.67;;;12.60;;
10582;SDS011;33679;51.218;6.786;2023-02-11T02:34:29;25.90;;;11.77;;
10582;SDS011;33679;51.218;6.786;2023-02-11T02:37:23;21.30;;;11.97;;
10582;SDS011;33679;51.218;6.786;2023-02-11T02:40:32;23.50;;;11.20;;
10582;SDS011;33679;51.218;6.786;2023-02-11T02:43:09;20.03;;;12.97;;
10582;SDS011;33679;51.218;6.786;2023-02-11T02:45:43;21.17;;;11.00;;
10582;SDS011;33679;51.218;6.786;2023-02-11T02:48:24;25.37;;;13.67;;
10582;SDS011;33679;51.218;6.786;2023-02-11T02:51:03;26.10;;;12.60;;
10582;SDS011;33679;51.218;6.786;2023-02-11T02:53:48;23.90;;;12.13;;
10582;SDS011;33679;51.218;6.786;2023-02-11T02:56:30;20.63;;;13.20;;
10582;SDS011;33679;51.218;6.786;2023-02-11T03:02:10;27.37;;;13.60;;
10582;SDS011;33679;51.218;6.786;2023-02-11T03:04:52;20.13;;;12.20;;
10582;SDS011;33679;51.218;6.786;2023-02-11T03:07:31;21.03;;;12.40;;
10582;SDS011;33679;51.218;6.786;2023-02-11T03:10:16;24.73;;;12.93;;
10582;SDS011;33679;51.218;6.786;2023-02-11T03:12:55;23.90;;;13.47;;
10582;SDS011;33679;51.218;6.786;2023-02-11T03:15:31;21.03;;;12.20;;
10582;SDS011;33679;51.218;6.786;2023-02-11T03:18:08;25.40;;;12.40;;
10582;SDS011;33679;51.218;6.786;2023-02-11T03:20:46;30.33;;;12.17;;
10582;SDS011;33679;51.218;6.786;2023-02-11T03:23:25;21.33;;;11.30;;
10582;SDS011;33679;51.218;6.786;2023-02-11T03:26:02;20.20;;;12.67;;
10582;SDS011;33679;51.218;6.786;2023-02-11T03:28:43;24.27;;;12.33;;
10582;SDS011;33679;51.218;6.786;2023-02-11T03:31:31;16.57;;;11.53;;
10582;SDS011;33679;51.218;6.786;2023-02-11T03:34:35;25.30;;;13.77;;
10582;SDS011;33679;51.218;6.786;2023-02-11T03:37:14;25.20;;;12.90;;
10582;SDS011;33679;51.218;6.786;2023-02-11T03:39:52;18.00;;;10.80;;
10582;SDS011;33679;51.218;6.786;2023-02-11T03:42:29;23.90;;;11.80;;
10582;SDS011;33679;51.218;6.786;2023-02-11T03:45:07;21.73;;;12.80;;
10582;SDS011;33679;51.218;6.786;2023-02-11T03:47:44;21.20;;;11.03;;
10582;SDS011;33679;51.218;6.786;2023-02-11T03:50:19;20.87;;;10.90;;
10582;SDS011;33679;51.218;6.786;2023-02-11T03:52:54;25.57;;;12.23;;
10582;SDS011;33679;51.218;6.786;2023-02-11T03:55:30;24.00;;;14.00;;
10582;SDS011;33679;51.218;6.786;2023-02-11T03:58:05;23.23;;;11.47;;
10582;SDS011;33679;51.218;6.786;2023-02-11T04:00:39;22.57;;;10.80;;
10582;SDS011;33679;51.218;6.786;2023-02-11T04:03:13;21.33;;;11.83;;
10582;SDS011;33679;51.218;6.786;2023-02-11T04:05:48;19.00;;;10.73;;
10582;SDS011;33679;51.218;6.786;2023-02-11T04:08:27;17.60;;;10.60;;
10582;SDS011;33679;51.218;6.786;2023-02-11T04:11:02;19.63;;;11.23;;
10582;SDS011;33679;51.218;6.786;2023-02-11T04:13:37;22.40;;;10.33;;
10582;SDS011;33679;51.218;6.786;2023-02-11T04:16:10;18.23;;;10.30;;
10582;SDS011;33679;51.218;6.786;2023-02-11T04:18:42;30.93;;;13.20;;
10582;SDS011;33679;51.218;6.786;2023-02-11T04:21:14;22.07;;;9.97;;
10582;SDS011;33679;51.218;6.786;2023-02-11T04:23:52;19.23;;;10.20;;
10582;SDS011;33679;51.218;6.786;2023-02-11T04:26:26;19.53;;;10.87;;
10582;SDS011;33679;51.218;6.786;2023-02-11T04:29:01;36.53;;;12.30;;
10582;SDS011;33679;51.218;6.786;2023-02-11T04:31:39;20.03;;;10.77;;
10582;SDS011;33679;51.218;6.786;2023-02-11T04:34:15;18.03;;;11.07;;
10582;SDS011;33679;51.218;6.786;2023-02-11T04:36:49;20.10;;;10.93;;
10582;SDS011;33679;51.218;6.786;2023-02-11T04:39:26;25.17;;;12.33;;
10582;SDS011;33679;51.218;6.786;2023-02-11T04:42:00;25.60;;;10.60;;
10582;SDS011;33679;51.218;6.786;2023-02-11T04:44:32;17.37;;;10.03;;
10582;SDS011;33679;51.218;6.786;2023-02-11T04:47:05;20.23;;;9.87;;
10582;SDS011;33679;51.218;6.786;2023-02-11T04:49:37;23.63;;;11.60;;
10582;SDS011;33679;51.218;6.786;2023-02-11T04:52:10;19.70;;;10.90;;
10582;SDS011;33679;51.218;6.786;2023-02-11T04:54:45;19.73;;;11.50;;
10582;SDS011;33679;51.218;6.786;2023-02-11T04:57:21;20.20;;;10.83;;
10582;SDS011;33679;51.218;6.786;2023-02-11T04:59:55;21.43;;;10.07;;
10582;SDS011;33679;51.218;6.786;2023-02-11T05:02:28;21.10;;;10.83;;
10582;SDS011;33679;51.218;6.786;2023-02-11T05:05:00;22.20;;;11.13;;
10582;SDS011;33679;51.218;6.786;2023-02-11T05:07:32;23.40;;;12.33;;
10582;SDS011;33679;51.218;6.786;2023-02-11T05:10:05;23.63;;;12.10;;
10582;SDS011;33679;51.218;6.786;2023-02-11T05:12:40;25.17;;;10.87;;
10582;SDS011;33679;51.218;6.786;2023-02-11T05:15:13;22.30;;;10.50;;
10582;SDS011;33679;51.218;6.786;2023-02-11T05:17:45;23.43;;;12.00;;
10582;SDS011;33679;51.218;6.786;2023-02-11T05:20:18;17.33;;;10.57;;
10582;SDS011;33679;51.218;6.786;2023-02-11T05:22:51;25.13;;;12.47;;
10582;SDS011;33679;51.218;6.786;2023-02-11T05:25:26;20.63;;;10.93;;
10582;SDS011;33679;51.218;6.786;2023-02-11T05:28:00;26.50;;;11.70;;
10582;SDS011;33679;51.218;6.786;2023-02-11T05:30:33;23.53;;;11.53;;
10582;SDS011;33679;51.218;6.786;2023-02-11T05:33:05;23.70;;;10.83;;
10582;SDS011;33679;51.218;6.786;2023-02-11T05:35:39;23.87;;;12.97;;
10582;SDS011;33679;51.218;6.786;2023-02-11T05:38:11;20.50;;;11.50;;
10582;SDS011;33679;51.218;6.786;2023-02-11T05:40:44;20.50;;;10.77;;
10582;SDS011;33679;51.218;6.786;2023-02-11T05:43:17;22.07;;;10.97;;
10582;SDS011;33679;51.218;6.786;2023-02-11T05:45:53;23.73;;;11.17;;
10582;SDS011;33679;51.218;6.786;2023-02-11T05:48:25;20.70;;;11.57;;
10582;SDS011;33679;51.218;6.786;2023-02-11T05:50:58;23.00;;;11.87;;
10582;SDS011;33679;51.218;6.786;2023-02-11T05:53:33;23.43;;;11.67;;
10582;SDS011;33679;51.218;6.786;2023-02-11T05:56:17;25.50;;;13.33;;
10582;SDS011;33679;51.218;6.786;2023-02-11T05:58:53;25.67;;;12.50;;
10582;SDS011;33679;51.218;6.786;2023-02-11T06:01:35;20.97;;;11.47;;
10582;SDS011;33679;51.218;6.786;2023-02-11T06:04:15;20.60;;;11.30;;
10582;SDS011;33679;51.218;6.786;2023-02-11T06:06:52;21.67;;;12.10;;
10582;SDS011;33679;51.218;6.786;2023-02-11T06:09:26;21.80;;;11.83;;
10582;SDS011;33679;51.218;6.786;2023-02-11T06:12:18;24.80;;;12.47;;
10582;SDS011;33679;51.218;6.786;2023-02-11T06:14:53;21.47;;;11.93;;
10582;SDS011;33679;51.218;6.786;2023-02-11T06:17:33;20.67;;;11.47;;
10582;SDS011;33679;51.218;6.786;2023-02-11T06:20:08;19.57;;;11.53;;
10582;SDS011;33679;51.218;6.786;2023-02-11T06:22:45;22.90;;;11.97;;
10582;SDS011;33679;51.218;6.786;2023-02-11T06:25:24;22.90;;;12.10;;
10582;SDS011;33679;51.218;6.786;2023-02-11T06:28:07;26.83;;;13.10;;
10582;SDS011;33679;51.218;6.786;2023-02-11T06:31:10;24.83;;;11.03;;
10582;SDS011;33679;51.218;6.786;2023-02-11T06:33:43;23.90;;;12.17;;
10582;SDS011;33679;51.218;6.786;2023-02-11T06:36:16;23.30;;;12.20;;
10582;SDS011;33679;51.218;6.786;2023-02-11T06:38:49;23.60;;;12.20;;
10582;SDS011;33679;51.218;6.786;2023-02-11T06:41:22;24.03;;;12.57;;
10582;SDS011;33679;51.218;6.786;2023-02-11T06:43:55;30.20;;;12.97;;
10582;SDS011;33679;51.218;6.786;2023-02-11T06:46:31;25.63;;;13.27;;
10582;SDS011;33679;51.218;6.786;2023-02-11T06:49:03;21.83;;;12.67;;
10582;SDS011;33679;51.218;6.786;2023-02-11T06:51:42;23.20;;;12.60;;
10582;SDS011;33679;51.218;6.786;2023-02-11T06:55:15;26.20;;;12.07;;
10582;SDS011;33679;51.218;6.786;2023-02-11T06:57:47;30.20;;;13.60;;
10582;SDS011;33679;51.218;6.786;2023-02-11T07:00:23;25.87;;;13.60;;
10582;SDS011;33679;51.218;6.786;2023-02-11T07:03:03;23.60;;;12.10;;
10582;SDS011;33679;51.218;6.786;2023-02-11T07:05:36;28.13;;;12.37;;
10582;SDS011;33679;51.218;6.786;2023-02-11T07:08:14;29.03;;;13.20;;
10582;SDS011;33679;51.218;6.786;2023-02-11T07:13:31;30.17;;;13.43;;
10582;SDS011;33679;51.218;6.786;2023-02-11T07:16:04;33.80;;;11.63;;
10582;SDS011;33679;51.218;6.786;2023-02-11T07:18:41;21.90;;;13.23;;
10582;SDS011;33679;51.218;6.786;2023-02-11T07:21:20;27.07;;;12.00;;
10582;SDS011;33679;51.218;6.786;2023-02-11T07:23:55;25.83;;;12.60;;
10582;SDS011;33679;51.218;6.786;2023-02-11T07:26:29;26.57;;;12.77;;
10582;SDS011;33679;51.218;6.786;2023-02-11T07:29:08;27.60;;;12.77;;
10582;SDS011;33679;51.218;6.786;2023-02-11T07:31:41;27.90;;;12.93;;
10582;SDS011;33679;51.218;6.786;2023-02-11T07:34:19;21.60;;;12.23;;
10582;SDS011;33679;51.218;6.786;2023-02-11T07:36:53;25.30;;;12.20;;
10582;SDS011;33679;51.218;6.786;2023-02-11T07:39:35;31.07;;;11.90;;
10582;SDS011;33679;51.218;6.786;2023-02-11T07:42:16;26.43;;;12.33;;
10582;SDS011;33679;51.218;6.786;2023-02-11T07:44:54;30.13;;;12.90;;
10582;SDS011;33679;51.218;6.786;2023-02-11T07:47:40;23.57;;;11.60;;
10582;SDS011;33679;51.218;6.786;2023-02-11T07:50:15;26.03;;;12.13;;
10582;SDS011;33679;51.218;6.786;2023-02-11T07:52:49;26.73;;;12.07;;
10582;SDS011;33679;51.218;6.786;2023-02-11T07:55:25;26.90;;;12.97;;
10582;SDS011;33679;51.218;6.786;2023-02-11T07:58:07;25.60;;;13.00;;
10582;SDS011;33679;51.218;6.786;2023-02-11T08:00:42;26.23;;;13.10;;
10582;SDS011;33679;51.218;6.786;2023-02-11T08:03:26;26.43;;;12.33;;
10582;SDS011;33679;51.218;6.786;2023-02-11T08:06:10;24.27;;;12.83;;
10582;SDS011;33679;51.218;6.786;2023-02-11T08:08:43;25.07;;;11.07;;
10582;SDS011;33679;51.218;6.786;2023-02-11T08:11:17;28.37;;;12.70;;
10582;SDS011;33679;51.218;6.786;2023-02-11T08:16:50;27.13;;;12.77;;
10582;SDS011;33679;51.218;6.786;2023-02-11T08:19:23;33.50;;;13.40;;
10582;SDS011;33679;51.218;6.786;2023-02-11T08:21:58;28.20;;;13.80;;
10582;SDS011;33679;51.218;6.786;2023-02-11T08:24:31;34.60;;;15.40;;
10582;SDS011;33679;51.218;6.786;2023-02-11T08:27:05;28.00;;;12.77;;
10582;SDS011;33679;51.218;6.786;2023-02-11T08:29:41;29.27;;;14.57;;
10582;SDS011;33679;51.218;6.786;2023-02-11T08:32:22;28.50;;;13.50;;
10582;SDS011;33679;51.218;6.786;2023-02-11T08:34:55;23.70;;;11.60;;
10582;SDS011;33679;51.218;6.786;2023-02-11T08:37:34;29.23;;;13.20;;
10582;SDS011;33679;51.218;6.786;2023-02-11T08:40:11;29.00;;;12.73;;
10582;SDS011;33679;51.218;6.786;2023-02-11T08:42:46;29.23;;;12.67;;
10582;SDS011;33679;51.218;6.786;2023-02-11T08:45:26;37.37;;;14.50;;
10582;SDS011;33679;51.218;6.786;2023-02-11T08:48:00;37.73;;;15.07;;
10582;SDS011;33679;51.218;6.786;2023-02-11T08:50:33;30.37;;;14.20;;
10582;SDS011;33679;51.218;6.786;2023-02-11T08:53:09;30.40;;;13.30;;
10582;SDS011;33679;51.218;6.786;2023-02-11T08:55:47;24.43;;;12.43;;
10582;SDS011;33679;51.218;6.786;2023-02-11T08:58:22;43.13;;;18.23;;
10582;SDS011;33679;51.218;6.786;2023-02-11T09:00:54;34.03;;;14.27;;
10582;SDS011;33679;51.218;6.786;2023-02-11T09:03:28;42.93;;;15.43;;
10582;SDS011;33679;51.218;6.786;2023-02-11T09:06:02;39.07;;;15.77;;
10582;SDS011;33679;51.218;6.786;2023-02-11T09:08:38;35.87;;;15.63;;
10582;SDS011;33679;51.218;6.786;2023-02-11T09:11:12;31.47;;;14.13;;
10582;SDS011;33679;51.218;6.786;2023-02-11T09:13:45;34.27;;;15.57;;
10582;SDS011;33679;51.218;6.786;2023-02-11T09:16:19;34.97;;;13.80;;
10582;SDS011;33679;51.218;6.786;2023-02-11T09:18:56;34.57;;;14.77;;
10582;SDS011;33679;51.218;6.786;2023-02-11T09:21:29;31.80;;;14.10;;
10582;SDS011;33679;51.218;6.786;2023-02-11T09:24:04;39.70;;;16.20;;
10582;SDS011;33679;51.218;6.786;2023-02-11T09:26:40;38.03;;;17.00;;
10582;SDS011;33679;51.218;6.786;2023-02-11T09:29:14;26.47;;;14.07;;
10582;SDS011;33679;51.218;6.786;2023-02-11T09:31:48;26.43;;;13.93;;
10582;SDS011;33679;51.218;6.786;2023-02-11T09:34:21;42.53;;;14.67;;
10582;SDS011;33679;51.218;6.786;2023-02-11T09:36:55;31.67;;;14.50;;
10582;SDS011;33679;51.218;6.786;2023-02-11T09:39:29;33.83;;;15.53;;
10582;SDS011;33679;51.218;6.786;2023-02-11T09:42:05;35.87;;;14.97;;
10582;SDS011;33679;51.218;6.786;2023-02-11T09:44:54;31.27;;;13.60;;
10582;SDS011;33679;51.218;6.786;2023-02-11T09:47:50;37.43;;;18.00;;
10582;SDS011;33679;51.218;6.786;2023-02-11T09:50:29;35.27;;;16.37;;
10582;SDS011;33679;51.218;6.786;2023-02-11T09:53:06;36.93;;;14.80;;
10582;SDS011;33679;51.218;6.786;2023-02-11T09:55:47;33.33;;;14.73;;
10582;SDS011;33679;51.218;6.786;2023-02-11T09:58:27;36.57;;;16.60;;
10582;SDS011;33679;51.218;6.786;2023-02-11T10:01:03;38.47;;;16.00;;
10582;SDS011;33679;51.218;6.786;2023-02-11T10:03:53;36.43;;;15.60;;
10582;SDS011;33679;51.218;6.786;2023-02-11T10:06:36;33.10;;;14.97;;
10582;SDS011;33679;51.218;6.786;2023-02-11T10:09:19;39.87;;;16.00;;
10582;SDS011;33679;51.218;6.786;2023-02-11T10:12:27;31.37;;;15.03;;
10582;SDS011;33679;51.218;6.786;2023-02-11T10:15:15;36.03;;;16.60;;
10582;SDS011;33679;51.218;6.786;2023-02-11T10:17:56;32.73;;;16.90;;
10582;SDS011;33679;51.218;6.786;2023-02-11T10:20:45;61.17;;;28.73;;
10582;SDS011;33679;51.218;6.786;2023-02-11T10:23:36;43.37;;;18.10;;
10582;SDS011;33679;51.218;6.786;2023-02-11T10:26:21;33.97;;;16.97;;
10582;SDS011;33679;51.218;6.786;2023-02-11T10:29:05;42.50;;;15.93;;
10582;SDS011;33679;51.218;6.786;2023-02-11T10:32:12;36.50;;;15.60;;
10582;SDS011;33679;51.218;6.786;2023-02-11T10:35:02;40.53;;;16.00;;
10582;SDS011;33679;51.218;6.786;2023-02-11T10:37:47;33.97;;;14.97;;
10582;SDS011;33679;51.218;6.786;2023-02-11T10:40:39;38.73;;;15.33;;
10582;SDS011;33679;51.218;6.786;2023-02-11T10:43:21;38.60;;;16.73;;
10582;SDS011;33679;51.218;6.786;2023-02-11T10:46:00;38.37;;;17.60;;
10582;SDS011;33679;51.218;6.786;2023-02-11T10:48:40;36.80;;;17.33;;
10582;SDS011;33679;51.218;6.786;2023-02-11T10:51:19;35.30;;;16.03;;
10582;SDS011;33679;51.218;6.786;2023-02-11T10:56:58;42.00;;;17.47;;
10582;SDS011;33679;51.218;6.786;2023-02-11T10:59:32;39.93;;;16.80;;
10582;SDS011;33679;51.218;6.786;2023-02-11T11:02:19;40.93;;;18.03;;
10582;SDS011;33679;51.218;6.786;2023-02-11T11:04:55;43.93;;;17.07;;
10582;SDS011;33679;51.218;6.786;2023-02-11T11:07:30;48.43;;;18.17;;
10582;SDS011;33679;51.218;6.786;2023-02-11T11:10:05;32.03;;;15.07;;
10582;SDS011;33679;51.218;6.786;2023-02-11T11:12:55;48.63;;;20.77;;
10582;SDS011;33679;51.218;6.786;2023-02-11T11:15:31;45.00;;;19.87;;
10582;SDS011;33679;51.218;6.786;2023-02-11T11:18:09;39.70;;;18.23;;
10582;SDS011;33679;51.218;6.786;2023-02-11T11:20:52;47.07;;;18.37;;
10582;SDS011;33679;51.218;6.786;2023-02-11T11:23:29;43.83;;;19.00;;
10582;SDS011;33679;51.218;6.786;2023-02-11T11:26:05;46.77;;;19.90;;
10582;SDS011;33679;51.218;6.786;2023-02-11T11:28:41;42.47;;;17.40;;
10582;SDS011;33679;51.218;6.786;2023-02-11T11:31:33;43.10;;;20.07;;
10582;SDS011;33679;51.218;6.786;2023-02-11T11:34:35;42.40;;;18.93;;
10582;SDS011;33679;51.218;6.786;2023-02-11T11:37:34;48.90;;;17.40;;
10582;SDS011;33679;51.218;6.786;2023-02-11T11:40:39;44.43;;;18.60;;
10582;SDS011;33679;51.218;6.786;2023-02-11T11:43:16;45.43;;;19.07;;
10582;SDS011;33679;51.218;6.786;2023-02-11T11:45:53;42.03;;;17.63;;
10582;SDS011;33679;51.218;6.786;2023-02-11T11:48:37;48.40;;;21.37;;
10582;SDS011;33679;51.218;6.786;2023-02-11T11:54:39;47.30;;;18.53;;
10582;SDS011;33679;51.218;6.786;2023-02-11T11:57:15;44.27;;;18.07;;
10582;SDS011;33679;51.218;6.786;2023-02-11T11:59:52;41.80;;;17.90;;
10582;SDS011;33679;51.218;6.786;2023-02-11T12:02:39;41.27;;;20.00;;
10582;SDS011;33679;51.218;6.786;2023-02-11T12:05:31;42.30;;;19.17;;
10582;SDS011;33679;51.218;6.786;2023-02-11T12:08:22;45.70;;;18.83;;
10582;SDS011;33679;51.218;6.786;2023-02-11T12:11:14;44.67;;;18.97;;
10582;SDS011;33679;51.218;6.786;2023-02-11T12:14:11;41.20;;;18.10;;
10582;SDS011;33679;51.218;6.786;2023-02-11T12:16:59;49.97;;;18.70;;
10582;SDS011;33679;51.218;6.786;2023-02-11T12:19:53;37.53;;;18.00;;
10582;SDS011;33679;51.218;6.786;2023-02-11T12:22:41;44.07;;;18.67;;
10582;SDS011;33679;51.218;6.786;2023-02-11T12:25:27;44.83;;;19.20;;
10582;SDS011;33679;51.218;6.786;2023-02-11T12:28:16;55.53;;;19.93;;
10582;SDS011;33679;51.218;6.786;2023-02-11T12:31:04;45.90;;;19.30;;
10582;SDS011;33679;51.218;6.786;2023-02-11T12:33:50;42.37;;;17.90;;
10582;SDS011;33679;51.218;6.786;2023-02-11T12:36:52;45.83;;;19.33;;
10582;SDS011;33679;51.218;6.786;2023-02-11T12:39:55;46.20;;;19.80;;
10582;SDS011;33679;51.218;6.786;2023-02-11T12:42:46;46.57;;;20.30;;
10582;SDS011;33679;51.218;6.786;2023-02-11T12:46:01;47.53;;;18.87;;
10582;SDS011;33679;51.218;6.786;2023-02-11T12:48:49;41.37;;;18.57;;
10582;SDS011;33679;51.218;6.786;2023-02-11T12:51:52;49.17;;;17.70;;
10582;SDS011;33679;51.218;6.786;2023-02-11T12:54:44;47.70;;;23.43;;
10582;SDS011;33679;51.218;6.786;2023-02-11T12:57:22;42.80;;;19.13;;
10582;SDS011;33679;51.218;6.786;2023-02-11T13:00:17;43.37;;;17.90;;
10582;SDS011;33679;51.218;6.786;2023-02-11T13:02:57;40.80;;;17.30;;
10582;SDS011;33679;51.218;6.786;2023-02-11T13:05:44;40.33;;;18.00;;
10582;SDS011;33679;51.218;6.786;2023-02-11T13:08:21;46.83;;;19.03;;
10582;SDS011;33679;51.218;6.786;2023-02-11T13:11:00;40.83;;;17.57;;
10582;SDS011;33679;51.218;6.786;2023-02-11T13:13:36;53.23;;;19.47;;
10582;SDS011;33679;51.218;6.786;2023-02-11T13:16:19;55.83;;;19.23;;
10582;SDS011;33679;51.218;6.786;2023-02-11T13:19:09;42.13;;;19.03;;
10582;SDS011;33679;51.218;6.786;2023-02-11T13:22:08;34.60;;;17.57;;
10582;SDS011;33679;51.218;6.786;2023-02-11T13:24:49;49.33;;;21.53;;
10582;SDS011;33679;51.218;6.786;2023-02-11T13:27:28;41.10;;;18.07;;
10582;SDS011;33679;51.218;6.786;2023-02-11T13:30:25;44.00;;;17.90;;
10582;SDS011;33679;51.218;6.786;2023-02-11T13:33:13;37.90;;;17.60;;
10582;SDS011;33679;51.218;6.786;2023-02-11T13:36:23;35.57;;;17.07;;
10582;SDS011;33679;51.218;6.786;2023-02-11T13:39:20;33.63;;;15.80;;
10582;SDS011;33679;51.218;6.786;2023-02-11T13:42:10;41.43;;;16.90;;
10582;SDS011;33679;51.218;6.786;2023-02-11T13:45:16;46.10;;;17.40;;
10582;SDS011;33679;51.218;6.786;2023-02-11T13:47:51;34.50;;;16.87;;
10582;SDS011;33679;51.218;6.786;2023-02-11T13:50:31;37.97;;;16.90;;
10582;SDS011;33679;51.218;6.786;2023-02-11T13:53:13;39.27;;;17.23;;
10582;SDS011;33679;51.218;6.786;2023-02-11T13:56:27;34.97;;;17.20;;
10582;SDS011;33679;51.218;6.786;2023-02-11T14:03:29;39.90;;;16.20;;
10582;SDS011;33679;51.218;6.786;2023-02-11T14:06:39;38.43;;;18.27;;
10582;SDS011;33679;51.218;6.786;2023-02-11T14:13:28;36.97;;;17.17;;
10582;SDS011;33679;51.218;6.786;2023-02-11T14:16:15;57.97;;;25.00;;
10582;SDS011;33679;51.218;6.786;2023-02-11T14:19:03;42.33;;;18.67;;
10582;SDS011;33679;51.218;6.786;2023-02-11T14:21:43;40.83;;;18.20;;
10582;SDS011;33679;51.218;6.786;2023-02-11T14:27:35;42.67;;;18.57;;
10582;SDS011;33679;51.218;6.786;2023-02-11T14:30:42;40.87;;;19.70;;
10582;SDS011;33679;51.218;6.786;2023-02-11T14:37:07;44.07;;;17.50;;
10582;SDS011;33679;51.218;6.786;2023-02-11T14:39:58;35.97;;;18.63;;
10582;SDS011;33679;51.218;6.786;2023-02-11T14:42:38;39.53;;;17.63;;
10582;SDS011;33679;51.218;6.786;2023-02-11T14:45:14;41.50;;;18.30;;
10582;SDS011;33679;51.218;6.786;2023-02-11T14:47:53;38.23;;;17.17;;
10582;SDS011;33679;51.218;6.786;2023-02-11T14:50:33;39.60;;;17.67;;
10582;SDS011;33679;51.218;6.786;2023-02-11T14:53:15;39.43;;;16.87;;
10582;SDS011;33679;51.218;6.786;2023-02-11T14:56:36;36.47;;;17.40;;
10582;SDS011;33679;51.218;6.786;2023-02-11T15:02:44;47.43;;;22.20;;
10582;SDS011;33679;51.218;6.786;2023-02-11T15:05:24;40.50;;;19.13;;
10582;SDS011;33679;51.218;6.786;2023-02-11T15:08:03;38.77;;;17.70;;
10582;SDS011;33679;51.218;6.786;2023-02-11T15:10:43;38.97;;;17.33;;
10582;SDS011;33679;51.218;6.786;2023-02-11T15:13:25;41.17;;;17.63;;
10582;SDS011;33679;51.218;6.786;2023-02-11T15:16:26;37.10;;;16.63;;
10582;SDS011;33679;51.218;6.786;2023-02-11T15:23:41;44.60;;;18.40;;
10582;SDS011;33679;51.218;6.786;2023-02-11T15:26:41;42.13;;;18.53;;
10582;SDS011;33679;51.218;6.786;2023-02-11T15:29:35;40.10;;;17.70;;
10582;SDS011;33679;51.218;6.786;2023-02-11T15:32:18;42.47;;;18.00;;
10582;SDS011;33679;51.218;6.786;2023-02-11T15:34:52;38.90;;;17.13;;
10582;SDS011;33679;51.218;6.786;2023-02-11T15:37:27;45.47;;;20.20;;
10582;SDS011;33679;51.218;6.786;2023-02-11T15:40:13;40.13;;;18.80;;
10582;SDS011;33679;51.218;6.786;2023-02-11T15:43:01;50.87;;;19.03;;
10582;SDS011;33679;51.218;6.786;2023-02-11T15:45:55;36.70;;;17.00;;
10582;SDS011;33679;51.218;6.786;2023-02-11T15:48:42;38.93;;;18.33;;
10582;SDS011;33679;51.218;6.786;2023-02-11T15:51:18;41.27;;;18.87;;
10582;SDS011;33679;51.218;6.786;2023-02-11T15:53:54;44.07;;;18.53;;
10582;SDS011;33679;51.218;6.786;2023-02-11T15:56:29;40.07;;;17.30;;
10582;SDS011;33679;51.218;6.786;2023-02-11T15:59:16;34.20;;;17.87;;
10582;SDS011;33679;51.218;6.786;2023-02-11T16:01:51;41.20;;;18.20;;
10582;SDS011;33679;51.218;6.786;2023-02-11T16:04:25;41.47;;;18.33;;
10582;SDS011;33679;51.218;6.786;2023-02-11T16:06:58;39.77;;;18.10;;
10582;SDS011;33679;51.218;6.786;2023-02-11T16:09:32;43.03;;;17.87;;
10582;SDS011;33679;51.218;6.786;2023-02-11T16:12:21;51.47;;;24.60;;
10582;SDS011;33679;51.218;6.786;2023-02-11T16:18:13;45.23;;;19.23;;
10582;SDS011;33679;51.218;6.786;2023-02-11T16:21:18;45.47;;;18.90;;
10582;SDS011;33679;51.218;6.786;2023-02-11T16:23:58;49.10;;;18.30;;
10582;SDS011;33679;51.218;6.786;2023-02-11T16:26:54;45.90;;;19.60;;
10582;SDS011;33679;51.218;6.786;2023-02-11T16:29:29;47.50;;;18.90;;
10582;SDS011;33679;51.218;6.786;2023-02-11T16:32:06;40.53;;;19.57;;
10582;SDS011;33679;51.218;6.786;2023-02-11T16:34:42;37.07;;;16.93;;